createdAt,value
2017-12-30T00:00:55.801Z,39.17
2017-12-30T00:01:56.368Z,41.35
2017-12-30T00:02:56.937Z,40.78
2017-12-30T00:03:57.504Z,41.06
2017-12-30T00:04:58.072Z,44.95
2017-12-30T00:05:58.639Z,45.81
2017-12-30T00:06:59.209Z,45.33
2017-12-30T00:07:59.787Z,46.37
2017-12-30T00:09:00.347Z,45.90
2017-12-30T00:10:00.916Z,46.09
2017-12-30T00:11:01.483Z,45.62
2017-12-30T00:12:02.051Z,46.66
2017-12-30T00:13:02.617Z,46.56
2017-12-30T00:14:03.187Z,46.37
2017-12-30T00:15:03.757Z,46.66
2017-12-30T00:16:04.325Z,47.80
2017-12-30T00:17:04.894Z,47.52
2017-12-30T00:18:05.462Z,48.84
2017-12-30T00:19:06.030Z,49.03
2017-12-30T00:20:06.602Z,50.26
2017-12-30T00:21:07.168Z,50.36
2017-12-30T00:22:07.757Z,48.94
2017-12-30T00:23:08.303Z,48.18
2017-12-30T00:24:08.873Z,49.79
2017-12-30T00:25:09.442Z,50.93
2017-12-30T00:26:10.013Z,53.49
2017-12-30T00:27:10.579Z,54.15
2017-12-30T00:28:11.149Z,52.73
2017-12-30T00:29:11.718Z,51.78
2017-12-30T00:30:12.285Z,50.64
2017-12-30T00:31:12.851Z,50.64
2017-12-30T00:32:13.420Z,50.45
2017-12-30T00:33:14.001Z,52.16
2017-12-30T00:34:14.569Z,52.83
2017-12-30T00:35:15.154Z,52.45
2017-12-30T00:36:15.719Z,53.96
2017-12-30T00:37:16.288Z,52.73
2017-12-30T00:38:16.870Z,54.53
2017-12-30T00:39:17.453Z,54.91
2017-12-30T00:40:18.020Z,54.72
2017-12-30T00:41:18.588Z,53.58
2017-12-30T00:42:19.155Z,54.44
2017-12-30T00:43:19.736Z,56.24
2017-12-30T00:44:20.306Z,55.38
2017-12-30T00:45:20.874Z,56.71
2017-12-30T00:46:21.442Z,55.10
2017-12-30T00:47:22.012Z,57.28
2017-12-30T00:48:22.582Z,56.15
2017-12-30T00:49:23.150Z,56.24
2017-12-30T00:50:23.717Z,56.05
2017-12-30T00:51:24.285Z,55.19
2017-12-30T00:52:24.854Z,55.48
2017-12-30T00:53:25.423Z,56.05
2017-12-30T00:54:25.994Z,56.15
2017-12-30T00:55:26.562Z,56.62
2017-12-30T00:56:27.130Z,56.24
2017-12-30T00:57:27.698Z,56.99
2017-12-30T00:58:28.266Z,56.99
2017-12-30T00:59:28.834Z,57.76
2017-12-30T01:00:29.404Z,58.80
2017-12-30T01:01:29.974Z,59.46
2017-12-30T01:02:30.542Z,58.51
2017-12-30T01:03:31.110Z,58.23
2017-12-30T01:04:31.679Z,58.23
2017-12-30T01:05:32.247Z,57.76
2017-12-30T01:06:32.817Z,57.47
2017-12-30T01:07:33.386Z,56.34
2017-12-30T01:08:33.956Z,55.00
2017-12-30T01:09:34.525Z,56.43
2017-12-30T01:10:35.094Z,58.23
2017-12-30T01:11:35.662Z,57.57
2017-12-30T01:12:36.232Z,57.66
2017-12-30T01:13:36.803Z,58.23
2017-12-30T01:14:37.370Z,61.46
2017-12-30T01:15:37.938Z,63.82
2017-12-30T01:16:38.505Z,61.83
2017-12-30T01:17:39.073Z,62.59
2017-12-30T01:18:39.686Z,61.27
2017-12-30T01:19:40.209Z,59.66
2017-12-30T01:20:40.780Z,58.42
2017-12-30T01:21:41.361Z,56.81
2017-12-30T01:22:41.930Z,56.24
2017-12-30T01:23:42.501Z,58.14
2017-12-30T01:24:43.084Z,59.18
2017-12-30T01:25:43.667Z,57.19
2017-12-30T01:26:44.236Z,58.42
2017-12-30T01:27:44.808Z,58.33
2017-12-30T01:28:45.373Z,57.28
2017-12-30T01:29:45.941Z,55.96
2017-12-30T01:30:46.508Z,56.81
2017-12-30T01:31:47.076Z,56.52
2017-12-30T01:32:47.657Z,57.09
2017-12-30T01:33:48.225Z,57.38
2017-12-30T01:34:48.793Z,59.75
2017-12-30T01:35:49.363Z,61.17
2017-12-30T01:36:49.933Z,62.50
2017-12-30T01:37:50.504Z,61.93
2017-12-30T01:38:51.072Z,62.69
2017-12-30T01:39:51.641Z,64.01
2017-12-30T01:40:52.220Z,63.45
2017-12-30T01:41:52.787Z,64.59
2017-12-30T01:42:53.357Z,64.20
2017-12-30T01:43:53.925Z,64.30
2017-12-30T01:44:54.494Z,63.54
2017-12-30T01:45:55.064Z,62.69
2017-12-30T01:46:55.632Z,63.92
2017-12-30T01:47:56.201Z,63.82
2017-12-30T01:48:56.769Z,64.40
2017-12-30T01:49:57.337Z,63.73
2017-12-30T01:50:57.904Z,64.49
2017-12-30T01:51:58.473Z,67.52
2017-12-30T01:52:59.043Z,67.62
2017-12-30T01:53:59.611Z,66.58
2017-12-30T01:55:00.180Z,65.53
2017-12-30T01:56:00.747Z,66.58
2017-12-30T01:57:01.315Z,65.44
2017-12-30T01:58:01.883Z,64.78
2017-12-30T01:59:02.451Z,65.72
2017-12-30T02:00:03.020Z,68.10
2017-12-30T02:01:03.589Z,69.42
2017-12-30T02:02:04.158Z,68.29
2017-12-30T02:03:04.727Z,70.94
2017-12-30T02:04:05.296Z,69.99
2017-12-30T02:05:05.865Z,70.84
2017-12-30T02:06:06.432Z,74.07
2017-12-30T02:07:07.004Z,73.31
2017-12-30T02:08:07.570Z,73.69
2017-12-30T02:09:08.138Z,72.74
2017-12-30T02:10:08.706Z,72.55
2017-12-30T02:11:09.275Z,74.64
2017-12-30T02:12:09.846Z,75.96
2017-12-30T02:13:10.414Z,76.73
2017-12-30T02:14:10.984Z,77.58
2017-12-30T02:15:11.551Z,75.40
2017-12-30T02:16:12.117Z,73.69
2017-12-30T02:17:12.686Z,75.31
2017-12-30T02:18:13.254Z,74.92
2017-12-30T02:19:13.824Z,75.31
2017-12-30T02:20:14.406Z,75.68
2017-12-30T02:21:14.974Z,75.96
2017-12-30T02:22:15.544Z,76.15
2017-12-30T02:23:16.113Z,76.82
2017-12-30T02:24:16.681Z,75.87
2017-12-30T02:25:17.249Z,74.83
2017-12-30T02:26:17.818Z,73.12
2017-12-30T02:27:18.386Z,75.68
2017-12-30T02:28:18.957Z,77.20
2017-12-30T02:29:19.524Z,75.78
2017-12-30T02:30:20.091Z,74.64
2017-12-30T02:31:20.660Z,75.49
2017-12-30T02:32:21.242Z,76.34
2017-12-30T02:33:21.809Z,77.39
2017-12-30T02:34:22.377Z,78.53
2017-12-30T02:35:22.946Z,78.72
2017-12-30T02:36:23.520Z,80.33
2017-12-30T02:37:24.079Z,86.02
2017-12-30T02:38:24.663Z,85.93
2017-12-30T02:39:25.230Z,85.26
2017-12-30T02:40:25.799Z,84.41
2017-12-30T02:41:26.365Z,85.26
2017-12-30T02:42:26.936Z,82.89
2017-12-30T02:43:27.503Z,83.65
2017-12-30T02:44:28.071Z,85.45
2017-12-30T02:45:28.638Z,86.68
2017-12-30T02:46:29.207Z,85.45
2017-12-30T02:47:29.775Z,85.93
2017-12-30T02:48:30.346Z,84.22
2017-12-30T02:49:30.924Z,83.27
2017-12-30T02:50:31.490Z,84.12
2017-12-30T02:51:32.058Z,84.22
2017-12-30T02:52:32.626Z,84.41
2017-12-30T02:53:33.210Z,84.03
2017-12-30T02:54:33.776Z,84.03
2017-12-30T02:55:34.345Z,84.31
2017-12-30T02:56:34.914Z,82.47
2017-12-30T02:57:35.482Z,83.94
2017-12-30T02:58:36.065Z,83.42
2017-12-30T02:59:36.646Z,84.41
2017-12-30T03:00:37.214Z,84.17
2017-12-30T03:01:37.786Z,82.28
2017-12-30T03:02:38.368Z,81.90
2017-12-30T03:03:38.938Z,81.43
2017-12-30T03:04:39.508Z,82.56
2017-12-30T03:05:40.075Z,83.04
2017-12-30T03:06:40.658Z,82.56
2017-12-30T03:07:41.229Z,82.28
2017-12-30T03:08:41.797Z,82.18
2017-12-30T03:09:42.364Z,83.70
2017-12-30T03:10:42.932Z,83.13
2017-12-30T03:11:43.502Z,81.33
2017-12-30T03:12:44.074Z,80.67
2017-12-30T03:13:44.638Z,79.72
2017-12-30T03:14:45.208Z,78.30
2017-12-30T03:15:45.774Z,80.19
2017-12-30T03:16:46.358Z,80.29
2017-12-30T03:17:46.926Z,81.71
2017-12-30T03:18:47.493Z,80.57
2017-12-30T03:19:48.075Z,81.33
2017-12-30T03:20:48.642Z,81.33
2017-12-30T03:21:49.211Z,81.05
2017-12-30T03:22:49.779Z,80.95
2017-12-30T03:23:50.350Z,81.05
2017-12-30T03:24:50.917Z,82.09
2017-12-30T03:25:51.498Z,81.14
2017-12-30T03:26:52.069Z,84.36
2017-12-30T03:27:52.637Z,82.37
2017-12-30T03:28:53.209Z,82.85
2017-12-30T03:29:53.775Z,82.56
2017-12-30T03:30:54.342Z,82.47
2017-12-30T03:31:54.912Z,81.81
2017-12-30T03:32:55.495Z,81.52
2017-12-30T03:33:56.066Z,83.51
2017-12-30T03:34:56.634Z,84.27
2017-12-30T03:35:57.201Z,84.36
2017-12-30T03:36:57.769Z,81.24
2017-12-30T03:37:58.351Z,81.52
2017-12-30T03:38:58.919Z,81.05
2017-12-30T03:39:59.491Z,81.62
2017-12-30T03:41:00.056Z,83.42
2017-12-30T03:42:00.624Z,83.51
2017-12-30T03:43:01.193Z,82.56
2017-12-30T03:44:01.761Z,82.47
2017-12-30T03:45:02.330Z,81.14
2017-12-30T03:46:02.898Z,80.67
2017-12-30T03:47:03.466Z,80.19
2017-12-30T03:48:04.034Z,80.19
2017-12-30T03:49:04.609Z,80.76
2017-12-30T03:50:05.174Z,81.52
2017-12-30T03:51:05.740Z,81.52
2017-12-30T03:52:06.309Z,80.06
2017-12-30T03:53:06.876Z,81.52
2017-12-30T03:54:07.443Z,81.14
2017-12-30T03:55:08.012Z,80.15
2017-12-30T03:56:08.579Z,80.06
2017-12-30T03:57:09.148Z,79.30
2017-12-30T03:58:09.716Z,79.30
2017-12-30T03:59:10.287Z,79.30
2017-12-30T04:00:10.855Z,79.39
2017-12-30T04:01:11.422Z,78.92
2017-12-30T04:02:11.990Z,77.97
2017-12-30T04:03:12.571Z,78.54
2017-12-30T04:04:13.137Z,78.92
2017-12-30T04:05:13.706Z,78.16
2017-12-30T04:06:14.274Z,77.40
2017-12-30T04:07:14.903Z,76.46
2017-12-30T04:08:15.426Z,76.65
2017-12-30T04:09:15.995Z,77.12
2017-12-30T04:10:16.566Z,75.51
2017-12-30T04:11:17.132Z,73.99
2017-12-30T04:12:17.701Z,73.71
2017-12-30T04:13:18.284Z,72.77
2017-12-30T04:14:18.853Z,72.48
2017-12-30T04:15:19.419Z,72.77
2017-12-30T04:16:19.988Z,74.09
2017-12-30T04:17:20.557Z,74.66
2017-12-30T04:18:21.128Z,73.90
2017-12-30T04:19:21.696Z,74.09
2017-12-30T04:20:22.277Z,73.61
2017-12-30T04:21:22.845Z,73.99
2017-12-30T04:22:23.467Z,73.33
2017-12-30T04:23:23.981Z,73.71
2017-12-30T04:24:24.550Z,73.80
2017-12-30T04:25:25.118Z,72.96
2017-12-30T04:26:25.691Z,74.28
2017-12-30T04:27:26.269Z,74.47
2017-12-30T04:28:26.838Z,74.47
2017-12-30T04:29:27.413Z,74.18
2017-12-30T04:30:27.989Z,73.14
2017-12-30T04:31:28.559Z,72.29
2017-12-30T04:32:29.127Z,72.48
2017-12-30T04:33:29.695Z,72.96
2017-12-30T04:34:30.261Z,72.96
2017-12-30T04:35:30.829Z,74.18
2017-12-30T04:36:31.395Z,74.18
2017-12-30T04:37:31.961Z,73.33
2017-12-30T04:38:32.529Z,72.57
2017-12-30T04:39:33.108Z,72.38
2017-12-30T04:40:33.675Z,74.18
2017-12-30T04:41:34.247Z,74.66
2017-12-30T04:42:34.809Z,73.90
2017-12-30T04:43:35.376Z,74.18
2017-12-30T04:44:35.945Z,73.43
2017-12-30T04:45:36.513Z,73.43
2017-12-30T04:46:37.085Z,73.90
2017-12-30T04:47:37.653Z,73.14
2017-12-30T04:48:38.236Z,73.43
2017-12-30T04:49:38.804Z,72.48
2017-12-30T04:50:39.372Z,71.81
2017-12-30T04:51:39.941Z,73.33
2017-12-30T04:52:40.511Z,73.24
2017-12-30T04:53:41.080Z,73.61
2017-12-30T04:54:41.648Z,73.71
2017-12-30T04:55:42.231Z,73.71
2017-12-30T04:56:42.799Z,72.96
2017-12-30T04:57:43.369Z,73.43
2017-12-30T04:58:43.936Z,73.33
2017-12-30T04:59:44.504Z,73.24
2017-12-30T05:00:45.075Z,73.14
2017-12-30T05:01:45.642Z,72.48
2017-12-30T05:02:46.210Z,74.85
2017-12-30T05:03:46.778Z,74.85
2017-12-30T05:04:47.345Z,75.32
2017-12-30T05:05:47.912Z,75.60
2017-12-30T05:06:48.494Z,75.70
2017-12-30T05:07:49.063Z,74.95
2017-12-30T05:08:49.644Z,74.75
2017-12-30T05:09:50.211Z,74.37
2017-12-30T05:10:50.778Z,75.42
2017-12-30T05:11:51.345Z,76.74
2017-12-30T05:12:51.913Z,75.23
2017-12-30T05:13:52.482Z,77.12
2017-12-30T05:14:53.051Z,77.12
2017-12-30T05:15:53.634Z,76.46
2017-12-30T05:16:54.204Z,77.12
2017-12-30T05:17:54.772Z,77.69
2017-12-30T05:18:55.342Z,78.35
2017-12-30T05:19:55.922Z,77.88
2017-12-30T05:20:56.490Z,76.84
2017-12-30T05:21:57.058Z,77.40
2017-12-30T05:22:57.626Z,75.98
2017-12-30T05:23:58.193Z,76.84
2017-12-30T05:24:58.763Z,76.55
2017-12-30T05:25:59.332Z,77.03
2017-12-30T05:26:59.901Z,77.12
2017-12-30T05:28:00.473Z,76.74
2017-12-30T05:29:01.035Z,76.55
2017-12-30T05:30:01.602Z,76.74
2017-12-30T05:31:02.170Z,76.55
2017-12-30T05:32:02.740Z,76.36
2017-12-30T05:33:03.320Z,75.98
2017-12-30T05:34:03.901Z,76.08
2017-12-30T05:35:04.469Z,75.98
2017-12-30T05:36:05.037Z,75.89
2017-12-30T05:37:05.620Z,75.70
2017-12-30T05:38:06.187Z,75.23
2017-12-30T05:39:06.755Z,75.42
2017-12-30T05:40:07.324Z,75.04
2017-12-30T05:41:07.904Z,74.66
2017-12-30T05:42:08.472Z,74.37
2017-12-30T05:43:09.041Z,74.75
2017-12-30T05:44:09.615Z,75.60
2017-12-30T05:45:10.194Z,75.79
2017-12-30T05:46:10.765Z,76.08
2017-12-30T05:47:11.347Z,77.22
2017-12-30T05:48:11.917Z,75.70
2017-12-30T05:49:12.485Z,75.98
2017-12-30T05:50:13.072Z,76.17
2017-12-30T05:51:13.621Z,76.46
2017-12-30T05:52:14.191Z,77.31
2017-12-30T05:53:14.772Z,79.91
2017-12-30T05:54:15.344Z,78.54
2017-12-30T05:55:15.907Z,78.87
2017-12-30T05:56:16.477Z,80.00
2017-12-30T05:57:17.045Z,80.19
2017-12-30T05:58:17.614Z,78.20
2017-12-30T05:59:18.183Z,80.10
2017-12-30T06:00:18.763Z,79.63
2017-12-30T06:01:19.317Z,80.19
2017-12-30T06:02:19.885Z,80.19
2017-12-30T06:03:20.455Z,79.82
2017-12-30T06:04:21.038Z,79.72
2017-12-30T06:05:21.606Z,80.48
2017-12-30T06:06:22.188Z,80.95
2017-12-30T06:07:22.759Z,81.14
2017-12-30T06:08:23.330Z,81.14
2017-12-30T06:09:23.896Z,81.05
2017-12-30T06:10:24.466Z,81.43
2017-12-30T06:11:25.032Z,81.90
2017-12-30T06:12:25.603Z,81.43
2017-12-30T06:13:26.173Z,80.86
2017-12-30T06:14:26.742Z,80.95
2017-12-30T06:15:27.312Z,81.99
2017-12-30T06:16:27.877Z,81.14
2017-12-30T06:17:28.448Z,80.00
2017-12-30T06:18:29.014Z,80.19
2017-12-30T06:19:29.594Z,80.00
2017-12-30T06:20:30.175Z,80.86
2017-12-30T06:21:30.757Z,79.34
2017-12-30T06:22:31.324Z,79.34
2017-12-30T06:23:31.893Z,78.30
2017-12-30T06:24:32.460Z,77.64
2017-12-30T06:25:33.027Z,76.50
2017-12-30T06:26:33.596Z,74.98
2017-12-30T06:27:34.164Z,74.22
2017-12-30T06:28:34.734Z,74.79
2017-12-30T06:29:35.301Z,73.37
2017-12-30T06:30:35.871Z,72.61
2017-12-30T06:31:36.439Z,70.72
2017-12-30T06:32:37.022Z,68.91
2017-12-30T06:33:37.591Z,68.35
2017-12-30T06:34:38.173Z,68.82
2017-12-30T06:35:38.741Z,67.96
2017-12-30T06:36:39.309Z,68.35
2017-12-30T06:37:39.878Z,67.40
2017-12-30T06:38:40.446Z,65.59
2017-12-30T06:39:41.027Z,64.74
2017-12-30T06:40:41.608Z,64.08
2017-12-30T06:41:42.190Z,63.98
2017-12-30T06:42:42.757Z,62.94
2017-12-30T06:43:43.326Z,61.61
2017-12-30T06:44:43.894Z,60.19
2017-12-30T06:45:44.476Z,59.91
2017-12-30T06:46:45.061Z,59.91
2017-12-30T06:47:45.628Z,59.72
2017-12-30T06:48:46.196Z,58.96
2017-12-30T06:49:46.764Z,58.20
2017-12-30T06:50:47.331Z,57.16
2017-12-30T06:51:47.901Z,57.25
2017-12-30T06:52:48.471Z,57.25
2017-12-30T06:53:49.039Z,56.97
2017-12-30T06:54:49.607Z,55.17
2017-12-30T06:55:50.174Z,55.07
2017-12-30T06:56:50.743Z,53.56
2017-12-30T06:57:51.325Z,52.89
2017-12-30T06:58:51.894Z,52.51
2017-12-30T06:59:52.476Z,51.85
2017-12-30T07:00:53.043Z,51.76
2017-12-30T07:01:53.611Z,50.52
2017-12-30T07:02:54.178Z,49.38
2017-12-30T07:03:54.747Z,48.91
2017-12-30T07:04:55.317Z,48.54
2017-12-30T07:05:55.890Z,48.15
2017-12-30T07:06:56.459Z,47.30
2017-12-30T07:07:57.040Z,46.64
2017-12-30T07:08:57.607Z,46.16
2017-12-30T07:09:58.222Z,45.97
2017-12-30T07:10:58.742Z,44.93
2017-12-30T07:11:59.311Z,45.03
2017-12-30T07:12:59.921Z,44.46
2017-12-30T07:14:00.449Z,44.06
2017-12-30T07:15:01.016Z,43.79
2017-12-30T07:16:01.584Z,43.20
2017-12-30T07:17:02.154Z,43.23
2017-12-30T07:18:02.721Z,42.25
2017-12-30T07:19:03.303Z,41.78
2017-12-30T07:20:03.872Z,40.47
2017-12-30T07:21:04.454Z,40.09
2017-12-30T07:22:05.023Z,39.51
2017-12-30T07:23:05.592Z,39.03
2017-12-30T07:24:06.160Z,38.28
2017-12-30T07:25:06.729Z,38.18
2017-12-30T07:26:07.296Z,37.80
2017-12-30T07:27:07.866Z,37.80
2017-12-30T07:28:08.433Z,37.42
2017-12-30T07:29:09.004Z,36.95
2017-12-30T07:30:09.584Z,36.76
2017-12-30T07:31:10.166Z,36.38
2017-12-30T07:32:10.734Z,35.83
2017-12-30T07:33:11.302Z,35.72
2017-12-30T07:34:11.870Z,35.53
2017-12-30T07:35:12.439Z,35.34
2017-12-30T07:36:13.008Z,35.15
2017-12-30T07:37:13.578Z,34.67
2017-12-30T07:38:14.148Z,34.30
2017-12-30T07:39:14.716Z,34.20
2017-12-30T07:40:15.284Z,34.39
2017-12-30T07:41:15.852Z,34.31
2017-12-30T07:42:16.435Z,34.58
2017-12-30T07:43:17.017Z,34.59
2017-12-30T07:44:17.585Z,33.94
2017-12-30T07:45:18.153Z,33.37
2017-12-30T07:46:18.722Z,33.17
2017-12-30T07:47:19.293Z,32.60
2017-12-30T07:48:19.863Z,32.23
2017-12-30T07:49:20.429Z,31.93
2017-12-30T07:50:20.995Z,31.47
2017-12-30T07:51:21.564Z,31.55
2017-12-30T07:52:22.130Z,31.75
2017-12-30T07:53:22.700Z,31.75
2017-12-30T07:54:23.269Z,31.85
2017-12-30T07:55:23.838Z,31.85
2017-12-30T07:56:24.406Z,31.85
2017-12-30T07:57:24.975Z,32.14
2017-12-30T07:58:25.543Z,32.14
2017-12-30T07:59:26.123Z,31.85
2017-12-30T08:00:26.693Z,31.66
2017-12-30T08:01:27.260Z,31.37
2017-12-30T08:02:27.830Z,30.24
2017-12-30T08:03:28.399Z,30.62
2017-12-30T08:04:28.968Z,29.95
2017-12-30T08:05:29.538Z,29.56
2017-12-30T08:06:30.107Z,29.19
2017-12-30T08:07:30.675Z,28.81
2017-12-30T08:08:31.259Z,28.72
2017-12-30T08:09:31.828Z,28.63
2017-12-30T08:10:32.405Z,28.25
2017-12-30T08:11:33.003Z,28.06
2017-12-30T08:12:33.537Z,27.96
2017-12-30T08:13:34.112Z,27.68
2017-12-30T08:14:34.688Z,27.58
2017-12-30T08:15:35.257Z,27.49
2017-12-30T08:16:35.826Z,27.58
2017-12-30T08:17:36.396Z,27.39
2017-12-30T08:18:36.978Z,27.49
2017-12-30T08:19:37.548Z,27.01
2017-12-30T08:20:38.119Z,27.11
2017-12-30T08:21:38.702Z,27.11
2017-12-30T08:22:39.272Z,26.64
2017-12-30T08:23:39.842Z,26.54
2017-12-30T08:24:40.434Z,26.73
2017-12-30T08:25:40.981Z,26.26
2017-12-30T08:26:41.551Z,26.07
2017-12-30T08:27:42.121Z,25.97
2017-12-30T08:28:42.692Z,25.59
2017-12-30T08:29:43.266Z,25.68
2017-12-30T08:30:43.833Z,25.88
2017-12-30T08:31:44.398Z,25.31
2017-12-30T08:32:44.967Z,25.78
2017-12-30T08:33:45.536Z,25.31
2017-12-30T08:34:46.105Z,25.58
2017-12-30T08:35:46.676Z,25.68
2017-12-30T08:36:47.244Z,25.68
2017-12-30T08:37:47.814Z,25.40
2017-12-30T08:38:48.384Z,26.26
2017-12-30T08:39:48.953Z,25.97
2017-12-30T08:40:49.524Z,25.59
2017-12-30T08:41:50.092Z,25.78
2017-12-30T08:42:50.680Z,25.31
2017-12-30T08:43:51.246Z,25.59
2017-12-30T08:44:51.815Z,26.16
2017-12-30T08:45:52.400Z,26.64
2017-12-30T08:46:52.969Z,26.82
2017-12-30T08:47:53.538Z,26.92
2017-12-30T08:48:54.108Z,26.82
2017-12-30T08:49:54.678Z,26.82
2017-12-30T08:50:55.260Z,26.73
2017-12-30T08:51:55.830Z,27.01
2017-12-30T08:52:56.401Z,26.54
2017-12-30T08:53:56.966Z,26.35
2017-12-30T08:54:57.536Z,25.59
2017-12-30T08:55:58.104Z,24.74
2017-12-30T08:56:58.674Z,24.65
2017-12-30T08:57:59.245Z,24.55
2017-12-30T08:58:59.814Z,24.27
2017-12-30T09:00:00.382Z,23.79
2017-12-30T09:01:00.952Z,23.69
2017-12-30T09:02:01.521Z,23.22
2017-12-30T09:03:02.093Z,23.13
2017-12-30T09:04:02.663Z,22.94
2017-12-30T09:05:03.236Z,22.75
2017-12-30T09:06:03.814Z,22.18
2017-12-30T09:07:04.382Z,21.80
2017-12-30T09:08:04.952Z,22.18
2017-12-30T09:09:05.525Z,21.80
2017-12-30T09:10:06.093Z,21.04
2017-12-30T09:11:06.663Z,21.23
2017-12-30T09:12:07.231Z,20.95
2017-12-30T09:13:07.800Z,20.76
2017-12-30T09:14:08.372Z,20.76
2017-12-30T09:15:08.939Z,20.38
2017-12-30T09:16:09.522Z,20.00
2017-12-30T09:17:10.092Z,19.43
2017-12-30T09:18:10.662Z,19.43
2017-12-30T09:19:11.232Z,19.05
2017-12-30T09:20:11.803Z,18.86
2017-12-30T09:21:12.372Z,18.39
2017-12-30T09:22:12.948Z,17.91
2017-12-30T09:23:13.512Z,18.10
2017-12-30T09:24:14.083Z,17.63
2017-12-30T09:25:14.655Z,17.82
2017-12-30T09:26:15.224Z,17.35
2017-12-30T09:27:15.791Z,17.06
2017-12-30T09:28:16.360Z,16.97
2017-12-30T09:29:16.930Z,16.39
2017-12-30T09:30:17.503Z,16.39
2017-12-30T09:31:18.071Z,16.11
2017-12-30T09:32:18.641Z,16.02
2017-12-30T09:33:19.210Z,15.83
2017-12-30T09:34:19.781Z,15.73
2017-12-30T09:35:20.351Z,15.83
2017-12-30T09:36:20.921Z,15.36
2017-12-30T09:37:21.490Z,15.17
2017-12-30T09:38:22.058Z,14.97
2017-12-30T09:39:22.629Z,14.97
2017-12-30T09:40:23.201Z,14.69
2017-12-30T09:41:23.786Z,14.59
2017-12-30T09:42:24.355Z,14.40
2017-12-30T09:43:24.924Z,14.12
2017-12-30T09:44:25.494Z,14.03
2017-12-30T09:45:26.077Z,13.93
2017-12-30T09:46:26.647Z,13.84
2017-12-30T09:47:27.216Z,13.55
2017-12-30T09:48:27.797Z,13.46
2017-12-30T09:49:28.369Z,13.27
2017-12-30T09:50:28.941Z,13.17
2017-12-30T09:51:29.510Z,12.89
2017-12-30T09:52:30.080Z,12.70
2017-12-30T09:53:30.651Z,12.79
2017-12-30T09:54:31.219Z,12.51
2017-12-30T09:55:31.790Z,12.41
2017-12-30T09:56:32.359Z,12.60
2017-12-30T09:57:32.930Z,11.94
2017-12-30T09:58:33.502Z,12.23
2017-12-30T09:59:34.070Z,11.94
2017-12-30T10:00:34.640Z,11.85
2017-12-30T10:01:35.208Z,11.66
2017-12-30T10:02:35.778Z,11.56
2017-12-30T10:03:36.349Z,11.56
2017-12-30T10:04:36.919Z,11.10
2017-12-30T10:05:37.488Z,11.19
2017-12-30T10:06:38.059Z,11.28
2017-12-30T10:07:38.628Z,11.38
2017-12-30T10:08:39.200Z,11.47
2017-12-30T10:09:39.769Z,11.19
2017-12-30T10:10:40.354Z,10.71
2017-12-30T10:11:40.925Z,10.71
2017-12-30T10:12:41.493Z,11.00
2017-12-30T10:13:42.063Z,10.43
2017-12-30T10:14:42.636Z,10.62
2017-12-30T10:15:43.207Z,10.52
2017-12-30T10:16:43.776Z,10.24
2017-12-30T10:17:44.360Z,10.14
2017-12-30T10:18:44.928Z,9.86
2017-12-30T10:19:45.499Z,9.95
2017-12-30T10:20:46.074Z,9.67
2017-12-30T10:21:46.644Z,9.39
2017-12-30T10:22:47.214Z,9.29
2017-12-30T10:23:47.784Z,9.48
2017-12-30T10:24:48.381Z,9.20
2017-12-30T10:25:48.951Z,9.20
2017-12-30T10:26:49.521Z,9.39
2017-12-30T10:27:50.093Z,9.10
2017-12-30T10:28:50.661Z,8.91
2017-12-30T10:29:51.231Z,8.72
2017-12-30T10:30:51.800Z,8.44
2017-12-30T10:31:52.371Z,8.44
2017-12-30T10:32:52.941Z,8.15
2017-12-30T10:33:53.510Z,8.06
2017-12-30T10:34:54.080Z,7.87
2017-12-30T10:35:54.647Z,7.59
2017-12-30T10:36:55.214Z,7.68
2017-12-30T10:37:55.785Z,7.49
2017-12-30T10:38:56.354Z,7.30
2017-12-30T10:39:56.925Z,7.11
2017-12-30T10:40:57.494Z,6.83
2017-12-30T10:41:58.061Z,6.92
2017-12-30T10:42:58.629Z,6.92
2017-12-30T10:43:59.202Z,6.35
2017-12-30T10:44:59.771Z,6.07
2017-12-30T10:46:00.339Z,5.88
2017-12-30T10:47:00.909Z,5.98
2017-12-30T10:48:01.477Z,5.50
2017-12-30T10:49:02.050Z,5.50
2017-12-30T10:50:02.616Z,5.41
2017-12-30T10:51:03.198Z,5.02
2017-12-30T10:52:03.785Z,5.02
2017-12-30T10:53:04.338Z,4.74
2017-12-30T10:54:04.910Z,4.55
2017-12-30T10:55:05.494Z,4.55
2017-12-30T10:56:06.070Z,4.65
2017-12-30T10:57:06.633Z,4.84
2017-12-30T10:58:07.201Z,4.27
2017-12-30T10:59:07.772Z,4.17
2017-12-30T11:00:08.342Z,4.08
2017-12-30T11:01:08.913Z,4.27
2017-12-30T11:02:09.480Z,3.89
2017-12-30T11:03:10.048Z,3.89
2017-12-30T11:04:10.618Z,3.80
2017-12-30T11:05:11.186Z,3.61
2017-12-30T11:06:11.756Z,3.51
2017-12-30T11:07:12.325Z,3.32
2017-12-30T11:08:12.897Z,3.51
2017-12-30T11:09:13.463Z,3.32
2017-12-30T11:10:14.046Z,3.61
2017-12-30T11:11:14.615Z,3.70
2017-12-30T11:12:15.184Z,3.61
2017-12-30T11:13:15.754Z,3.51
2017-12-30T11:14:16.322Z,3.61
2017-12-30T11:15:16.894Z,3.61
2017-12-30T11:16:17.474Z,3.70
2017-12-30T11:17:18.043Z,3.99
2017-12-30T11:18:18.612Z,3.99
2017-12-30T11:19:19.183Z,3.89
2017-12-30T11:20:19.751Z,4.08
2017-12-30T11:21:20.320Z,3.80
2017-12-30T11:22:20.890Z,4.17
2017-12-30T11:23:21.457Z,4.17
2017-12-30T11:24:22.025Z,3.89
2017-12-30T11:25:22.595Z,3.80
2017-12-30T11:26:23.165Z,4.08
2017-12-30T11:27:23.737Z,3.61
2017-12-30T11:28:24.306Z,3.70
2017-12-30T11:29:24.875Z,3.61
2017-12-30T11:30:25.443Z,3.70
2017-12-30T11:31:26.012Z,3.51
2017-12-30T11:32:26.580Z,3.32
2017-12-30T11:33:27.152Z,3.32
2017-12-30T11:34:27.722Z,3.04
2017-12-30T11:35:28.299Z,2.94
2017-12-30T11:36:28.912Z,3.04
2017-12-30T11:37:29.448Z,3.32
2017-12-30T11:38:30.019Z,2.94
2017-12-30T11:39:30.588Z,3.23
2017-12-30T11:40:31.160Z,3.42
2017-12-30T11:41:31.731Z,2.85
2017-12-30T11:42:32.299Z,2.85
2017-12-30T11:43:32.871Z,2.66
2017-12-30T11:44:33.438Z,2.75
2017-12-30T11:45:34.007Z,2.47
2017-12-30T11:46:34.578Z,2.75
2017-12-30T11:47:35.146Z,2.56
2017-12-30T11:48:35.729Z,2.56
2017-12-30T11:49:36.311Z,2.47
2017-12-30T11:50:36.881Z,2.75
2017-12-30T11:51:37.449Z,2.85
2017-12-30T11:52:38.074Z,2.75
2017-12-30T11:53:38.594Z,2.47
2017-12-30T11:54:39.165Z,2.47
2017-12-30T11:55:39.736Z,3.04
2017-12-30T11:56:40.305Z,2.85
2017-12-30T11:57:40.878Z,2.85
2017-12-30T11:58:41.478Z,2.66
2017-12-30T11:59:42.032Z,2.75
2017-12-30T12:00:42.605Z,2.75
2017-12-30T12:01:43.176Z,2.75
2017-12-30T12:02:43.747Z,2.47
2017-12-30T12:03:44.322Z,2.56
2017-12-30T12:04:44.897Z,2.47
2017-12-30T12:05:45.469Z,2.19
2017-12-30T12:06:46.038Z,1.90
2017-12-30T12:07:46.606Z,2.09
2017-12-30T12:08:47.182Z,2.37
2017-12-30T12:09:47.762Z,2.37
2017-12-30T12:10:48.334Z,2.47
2017-12-30T12:11:48.906Z,2.95
2017-12-30T12:12:49.477Z,2.85
2017-12-30T12:13:50.049Z,2.75
2017-12-30T12:14:50.619Z,2.95
2017-12-30T12:15:51.191Z,3.14
2017-12-30T12:16:51.764Z,3.23
2017-12-30T12:17:52.333Z,3.42
2017-12-30T12:18:52.904Z,3.42
2017-12-30T12:19:53.475Z,4.38
2017-12-30T12:20:54.047Z,4.18
2017-12-30T12:21:54.621Z,4.47
2017-12-30T12:22:55.206Z,4.57
2017-12-30T12:23:55.777Z,4.66
2017-12-30T12:24:56.347Z,4.57
2017-12-30T12:25:56.917Z,4.38
2017-12-30T12:26:57.486Z,5.23
2017-12-30T12:27:58.261Z,5.42
2017-12-30T12:28:58.832Z,5.99
2017-12-30T12:29:59.400Z,6.47
2017-12-30T12:30:59.970Z,7.14
2017-12-30T12:32:00.540Z,7.42
2017-12-30T12:33:01.113Z,7.99
2017-12-30T12:34:01.685Z,8.28
2017-12-30T12:35:02.257Z,8.18
2017-12-30T12:36:02.830Z,9.05
2017-12-30T12:37:03.402Z,9.71
2017-12-30T12:38:03.977Z,11.04
2017-12-30T12:39:04.552Z,11.23
2017-12-30T12:40:05.124Z,11.43
2017-12-30T12:41:05.699Z,12.38
2017-12-30T12:42:06.275Z,12.57
2017-12-30T12:43:06.848Z,12.85
2017-12-30T12:44:07.426Z,12.47
2017-12-30T12:45:07.995Z,13.23
2017-12-30T12:46:08.572Z,13.42
2017-12-30T12:47:09.159Z,14.28
2017-12-30T12:48:09.732Z,15.05
2017-12-30T12:49:10.307Z,15.71
2017-12-30T12:50:10.880Z,16.19
2017-12-30T12:51:11.459Z,16.77
2017-12-30T12:52:12.035Z,19.05
2017-12-30T12:53:12.608Z,21.34
2017-12-30T12:54:13.182Z,22.96
2017-12-30T12:55:13.756Z,22.39
2017-12-30T12:56:14.332Z,22.77
2017-12-30T12:57:14.906Z,22.00
2017-12-30T12:58:15.479Z,22.58
2017-12-30T12:59:16.053Z,23.63
2017-12-30T13:00:16.640Z,24.48
2017-12-30T13:01:17.215Z,25.05
2017-12-30T13:02:17.788Z,25.82
2017-12-30T13:03:18.375Z,27.53
2017-12-30T13:04:18.947Z,28.86
2017-12-30T13:05:19.519Z,31.05